Time;durP1;ratioP1;P1;durP2;ratioP2;P2;SDS_P1;SDS_P2;PMS_P1;PMS_P2;Temp;Humidity;BMP_temperature;BMP_pressure;BME280_temperature;BME280_humidity;BME280_pressure;Samples;Min_cycle;Max_cycle;Signal;HPM_P1;HPM_P2
2023/12/29 00:01:00;;;;;;;;;;;17.70;45.20;;;;;;1530966;76;666;-70
2023/12/29 00:03:03;;;;;;;;;;;17.70;45.20;;;;;;1539699;76;677;-72
2023/12/29 00:05:05;;;;;;;;;;;17.70;45.20;;;;;;1566071;74;1164;-71
2023/12/29 00:07:07;;;;;;;;;;;17.70;45.20;;;;;;1561455;74;798;-70
2023/12/29 00:09:09;;;;;;;;;;;17.70;45.10;;;;;;1555921;74;1948;-72
2023/12/29 00:11:12;;;;;;;;;;;17.70;45.20;;;;;;1570415;74;755;-72
2023/12/29 00:13:14;;;;;;;;;;;17.70;45.20;;;;;;1567918;74;1154;-73
2023/12/29 00:15:19;;;;;;;;;;;17.70;45.20;;;;;;1573957;74;1438;-73
2023/12/29 00:17:21;;;;;;;;;;;17.70;45.10;;;;;;1568179;74;758;-73
2023/12/29 00:19:23;;;;;;;;;;;17.60;45.10;;;;;;1573488;74;752;-70
2023/12/29 00:21:25;;;;;;;;;;;17.70;45.10;;;;;;1563233;74;781;-71
2023/12/29 00:23:27;;;;;;;;;;;17.70;45.20;;;;;;1561691;74;788;-71
2023/12/29 00:25:28;;;;;;;;;;;17.70;45.10;;;;;;1564562;74;1161;-71
2023/12/29 00:27:30;;;;;;;;;;;17.70;45.10;;;;;;1562611;74;748;-73
2023/12/29 00:29:32;;;;;;;;;;;17.70;45.10;;;;;;1561362;75;1938;-69
2023/12/29 00:31:34;;;;;;;;;;;17.70;45.10;;;;;;1564608;74;783;-72
2023/12/29 00:33:36;;;;;;;;;;;17.70;45.10;;;;;;1564149;74;754;-69
2023/12/29 00:35:41;;;;;;;;;;;17.60;45.00;;;;;;1559093;74;1178;-72
2023/12/29 00:37:43;;;;;;;;;;;17.60;45.00;;;;;;1560173;75;831;-70
2023/12/29 00:39:45;;;;;;;;;;;17.70;45.10;;;;;;1561031;76;771;-69
2023/12/29 00:41:46;;;;;;;;;;;17.70;45.20;;;;;;1563167;75;753;-68
2023/12/29 00:43:48;;;;;;;;;;;17.70;45.10;;;;;;1558814;74;758;-69
2023/12/29 00:45:50;;;;;;;;;;;17.70;45.20;;;;;;1553319;75;1189;-72
2023/12/29 00:47:53;;;;;;;;;;;17.70;45.10;;;;;;1564014;76;776;-71
2023/12/29 00:49:54;;;;;;;;;;;17.70;45.10;;;;;;1563681;74;1925;-74
2023/12/29 00:51:56;;;;;;;;;;;17.70;45.10;;;;;;1560142;74;793;-70
2023/12/29 00:53:58;;;;;;;;;;;17.70;45.10;;;;;;1563887;76;817;-74
2023/12/29 00:56:00;;;;;;;;;;;17.70;45.10;;;;;;1564740;75;1210;-69
2023/12/29 00:58:02;;;;;;;;;;;17.70;45.10;;;;;;1554996;75;781;-72
2023/12/29 01:00:05;;;;;;;;;;;17.70;45.20;;;;;;1562109;74;766;-72
2023/12/29 01:02:07;;;;;;;;;;;17.70;45.20;;;;;;1559905;76;769;-72
2023/12/29 01:04:09;;;;;;;;;;;17.70;45.20;;;;;;1562755;74;760;-68
2023/12/29 01:06:10;;;;;;;;;;;17.70;45.20;;;;;;1556708;75;1154;-70
2023/12/29 01:08:12;;;;;;;;;;;17.70;45.20;;;;;;1561862;74;779;-70
2023/12/29 01:10:14;;;;;;;;;;;17.60;45.10;;;;;;1568026;74;1930;-74
2023/12/29 01:12:16;;;;;;;;;;;17.70;45.10;;;;;;1562561;74;781;-71
2023/12/29 01:14:18;;;;;;;;;;;17.70;45.20;;;;;;1563083;74;746;-72
2023/12/29 01:16:20;;;;;;;;;;;17.70;45.20;;;;;;1536713;76;1201;-73
2023/12/29 01:18:22;;;;;;;;;;;17.70;45.20;;;;;;1573449;74;800;-72
2023/12/29 01:20:24;;;;;;;;;;;17.70;45.20;;;;;;1568887;74;772;-72
2023/12/29 01:22:25;;;;;;;;;;;17.60;45.00;;;;;;1575331;74;756;-73
2023/12/29 01:24:27;;;;;;;;;;;17.70;45.20;;;;;;1576487;74;1168;-72
2023/12/29 01:26:29;;;;;;;;;;;17.70;45.20;;;;;;1556984;74;757;-71
2023/12/29 01:28:31;;;;;;;;;;;17.70;45.10;;;;;;1550615;75;776;-70
2023/12/29 01:30:33;;;;;;;;;;;17.60;45.00;;;;;;1534276;75;1944;-71
2023/12/29 01:32:36;;;;;;;;;;;17.70;45.10;;;;;;1551812;74;776;-70
2023/12/29 01:34:38;;;;;;;;;;;17.60;45.00;;;;;;1562716;74;1166;-72
2023/12/29 01:36:40;;;;;;;;;;;17.70;45.10;;;;;;1569158;74;792;-72
2023/12/29 01:38:42;;;;;;;;;;;17.70;45.10;;;;;;1531032;75;799;-70
2023/12/29 01:40:44;;;;;;;;;;;17.70;45.10;;;;;;1538826;75;756;-69
2023/12/29 01:42:46;;;;;;;;;;;17.60;45.00;;;;;;1537433;75;756;-71
2023/12/29 01:44:53;;;;;;;;;;;17.70;45.10;;;;;;1559827;74;1169;-72
2023/12/29 01:46:52;;;;;;;;;;;17.70;45.10;;;;;;1563335;74;1083;-69
2023/12/29 01:48:54;;;;;;;;;;;17.70;45.10;;;;;;1551064;74;690;-71
2023/12/29 01:50:57;;;;;;;;;;;17.60;45.00;;;;;;1559671;75;1943;-72
2023/12/29 01:52:59;;;;;;;;;;;17.70;45.20;;;;;;1559216;75;711;-72
2023/12/29 01:55:01;;;;;;;;;;;17.70;45.20;;;;;;1561863;75;1248;-72
2023/12/29 01:57:02;;;;;;;;;;;17.70;45.20;;;;;;1563153;74;720;-72
2023/12/29 01:59:04;;;;;;;;;;;17.70;45.20;;;;;;1561897;76;766;-72
2023/12/29 02:01:06;;;;;;;;;;;17.70;45.20;;;;;;1560851;75;936;-70
2023/12/29 02:03:08;;;;;;;;;;;17.70;45.20;;;;;;1564006;74;977;-72
2023/12/29 02:05:10;;;;;;;;;;;17.60;45.10;;;;;;1556798;75;1167;-69
2023/12/29 02:07:12;;;;;;;;;;;17.70;45.20;;;;;;1564187;74;1403;-71
2023/12/29 02:09:14;;;;;;;;;;;17.70;45.20;;;;;;1553797;75;769;-72
2023/12/29 02:11:16;;;;;;;;;;;17.70;45.10;;;;;;1563829;76;1942;-72
2023/12/29 02:13:18;;;;;;;;;;;17.70;45.20;;;;;;1558833;75;771;-69
2023/12/29 02:15:20;;;;;;;;;;;17.70;45.20;;;;;;1563459;74;1161;-72
2023/12/29 02:17:26;;;;;;;;;;;17.70;45.10;;;;;;1573636;74;762;-72
2023/12/29 02:19:43;;;;;;;;;;;17.60;45.10;;;;;;1563254;74;776;-72
2023/12/29 02:21:41;;;;;;;;;;;17.70;45.20;;;;;;1564456;74;1545;-71
2023/12/29 02:23:43;;;;;;;;;;;17.70;45.20;;;;;;1561515;74;783;-70
2023/12/29 02:25:45;;;;;;;;;;;17.70;45.20;;;;;;1557691;74;1142;-73
2023/12/29 02:27:49;;;;;;;;;;;17.60;45.10;;;;;;1556438;74;761;-70
2023/12/29 02:29:52;;;;;;;;;;;17.60;45.00;;;;;;1571397;74;1939;-72
2023/12/29 02:31:54;;;;;;;;;;;17.70;45.20;;;;;;1547375;74;1345;-74
2023/12/29 02:33:56;;;;;;;;;;;17.60;45.10;;;;;;1556898;74;809;-73
2023/12/29 02:35:58;;;;;;;;;;;17.70;45.20;;;;;;1561190;74;1196;-72
2023/12/29 02:37:59;;;;;;;;;;;17.70;45.20;;;;;;1566634;74;807;-71
2023/12/29 02:40:01;;;;;;;;;;;17.70;45.20;;;;;;1563477;74;743;-73
2023/12/29 02:42:03;;;;;;;;;;;17.60;45.10;;;;;;1561650;74;751;-72
2023/12/29 02:44:05;;;;;;;;;;;17.60;45.10;;;;;;1559042;74;653;-71
2023/12/29 02:46:07;;;;;;;;;;;17.70;45.10;;;;;;1563631;74;1170;-74
2023/12/29 02:48:09;;;;;;;;;;;17.70;45.10;;;;;;1553805;74;777;-72
2023/12/29 02:50:11;;;;;;;;;;;17.60;45.00;;;;;;1546549;74;1999;-72
2023/12/29 02:52:13;;;;;;;;;;;17.70;45.10;;;;;;1573813;74;729;-72
2023/12/29 02:54:14;;;;;;;;;;;17.60;45.10;;;;;;1564964;74;771;-72
2023/12/29 02:56:16;;;;;;;;;;;17.70;45.10;;;;;;1555226;74;1232;-72
2023/12/29 02:58:18;;;;;;;;;;;17.60;45.00;;;;;;1565312;74;744;-73
2023/12/29 03:00:20;;;;;;;;;;;17.70;45.10;;;;;;1553785;74;765;-74
2023/12/29 03:02:22;;;;;;;;;;;17.70;45.10;;;;;;1558602;74;778;-72
2023/12/29 03:04:24;;;;;;;;;;;17.70;45.10;;;;;;1558664;74;1534;-69
2023/12/29 03:06:26;;;;;;;;;;;17.70;45.10;;;;;;1560558;74;795;-72
2023/12/29 03:08:28;;;;;;;;;;;17.70;45.20;;;;;;1556739;74;735;-70
2023/12/29 03:10:30;;;;;;;;;;;17.70;45.20;;;;;;1569034;74;1954;-70
2023/12/29 03:12:31;;;;;;;;;;;17.70;45.20;;;;;;1567693;74;771;-71
2023/12/29 03:14:33;;;;;;;;;;;17.70;45.20;;;;;;1568248;74;1176;-71
2023/12/29 03:16:35;;;;;;;;;;;17.70;45.20;;;;;;1556471;74;815;-73
2023/12/29 03:18:39;;;;;;;;;;;17.70;45.10;;;;;;1559641;74;798;-72
2023/12/29 03:20:40;;;;;;;;;;;17.70;45.20;;;;;;1562856;74;1640;-70
2023/12/29 03:22:42;;;;;;;;;;;17.70;45.20;;;;;;1558459;74;792;-74
2023/12/29 03:24:44;;;;;;;;;;;17.60;45.10;;;;;;1566221;74;1175;-73
2023/12/29 03:26:46;;;;;;;;;;;17.70;45.20;;;;;;1564019;74;771;-70
2023/12/29 03:28:48;;;;;;;;;;;17.70;45.20;;;;;;1553393;74;783;-75
2023/12/29 03:30:50;;;;;;;;;;;17.70;45.20;;;;;;1562451;74;1946;-70
2023/12/29 03:32:52;;;;;;;;;;;17.70;45.20;;;;;;1566344;74;784;-72
2023/12/29 03:34:54;;;;;;;;;;;17.70;45.20;;;;;;1563822;74;1176;-72
2023/12/29 03:36:55;;;;;;;;;;;17.70;45.20;;;;;;1558983;74;790;-72
2023/12/29 03:38:57;;;;;;;;;;;17.70;45.20;;;;;;1557794;74;788;-71
2023/12/29 03:40:59;;;;;;;;;;;17.60;45.10;;;;;;1558374;74;757;-71
2023/12/29 03:43:01;;;;;;;;;;;17.70;45.10;;;;;;1560266;74;778;-72
2023/12/29 03:45:03;;;;;;;;;;;17.70;45.20;;;;;;1552801;74;1183;-72
2023/12/29 03:47:05;;;;;;;;;;;17.70;45.20;;;;;;1559145;74;770;-70
2023/12/29 03:49:07;;;;;;;;;;;17.70;45.20;;;;;;1564834;74;772;-70
2023/12/29 03:51:09;;;;;;;;;;;17.70;45.20;;;;;;1559795;74;1931;-72
2023/12/29 03:53:11;;;;;;;;;;;17.70;45.20;;;;;;1568085;74;743;-72
2023/12/29 03:55:14;;;;;;;;;;;17.70;45.20;;;;;;1570991;74;1183;-72
2023/12/29 03:57:16;;;;;;;;;;;17.70;45.20;;;;;;1554786;74;768;-73
2023/12/29 03:59:18;;;;;;;;;;;17.70;45.20;;;;;;1532305;75;1443;-72
2023/12/29 04:01:20;;;;;;;;;;;17.70;45.20;;;;;;1552152;74;783;-69
2023/12/29 04:03:21;;;;;;;;;;;17.70;45.20;;;;;;1566720;74;761;-71
2023/12/29 04:05:23;;;;;;;;;;;17.70;45.20;;;;;;1569983;74;1209;-71
2023/12/29 04:07:25;;;;;;;;;;;17.70;45.20;;;;;;1541061;75;728;-72
2023/12/29 04:09:27;;;;;;;;;;;17.70;45.20;;;;;;1528723;76;690;-72
2023/12/29 04:11:29;;;;;;;;;;;17.60;45.10;;;;;;1555245;74;1936;-74
2023/12/29 04:13:31;;;;;;;;;;;17.60;45.10;;;;;;1542126;75;765;-71
2023/12/29 04:15:33;;;;;;;;;;;17.70;45.20;;;;;;1536035;75;1178;-70
2023/12/29 04:17:35;;;;;;;;;;;17.60;45.10;;;;;;1558979;74;682;-72
2023/12/29 04:19:36;;;;;;;;;;;17.70;45.20;;;;;;1534752;76;765;-71
2023/12/29 04:21:38;;;;;;;;;;;17.60;45.00;;;;;;1569416;74;776;-70
2023/12/29 04:23:41;;;;;;;;;;;17.70;45.10;;;;;;1580181;74;811;-74
2023/12/29 04:25:43;;;;;;;;;;;17.70;45.10;;;;;;1535873;76;1170;-72
2023/12/29 04:27:45;;;;;;;;;;;17.70;45.10;;;;;;1563220;74;767;-70
2023/12/29 04:29:47;;;;;;;;;;;17.70;45.10;;;;;;1566210;74;836;-72
2023/12/29 04:31:49;;;;;;;;;;;17.70;45.20;;;;;;1560435;74;1941;-72
2023/12/29 04:33:51;;;;;;;;;;;17.60;45.00;;;;;;1569380;74;779;-73
2023/12/29 04:35:52;;;;;;;;;;;17.70;45.10;;;;;;1566256;74;1173;-71
2023/12/29 04:37:54;;;;;;;;;;;17.70;45.20;;;;;;1567679;74;774;-70
2023/12/29 04:39:56;;;;;;;;;;;17.70;45.20;;;;;;1562432;74;792;-70
2023/12/29 04:41:58;;;;;;;;;;;17.70;45.20;;;;;;1574995;74;783;-71
2023/12/29 04:44:00;;;;;;;;;;;17.60;45.00;;;;;;1557962;74;765;-72
2023/12/29 04:46:02;;;;;;;;;;;17.70;45.20;;;;;;1569229;74;1169;-72
2023/12/29 04:48:04;;;;;;;;;;;17.70;45.20;;;;;;1563428;74;802;-73
2023/12/29 04:50:06;;;;;;;;;;;17.70;45.10;;;;;;1559718;74;765;-74
2023/12/29 04:52:08;;;;;;;;;;;17.70;45.20;;;;;;1572657;74;1952;-73
2023/12/29 04:54:10;;;;;;;;;;;17.70;45.10;;;;;;1576257;74;801;-72
2023/12/29 04:56:12;;;;;;;;;;;17.70;45.10;;;;;;1553949;74;1438;-70
2023/12/29 04:58:14;;;;;;;;;;;17.60;45.00;;;;;;1562628;74;674;-72
2023/12/29 05:00:16;;;;;;;;;;;17.70;45.20;;;;;;1559089;74;768;-71
2023/12/29 05:02:19;;;;;;;;;;;17.60;45.00;;;;;;1564608;74;769;-73
2023/12/29 05:04:21;;;;;;;;;;;17.60;45.10;;;;;;1563952;74;768;-71
2023/12/29 05:06:23;;;;;;;;;;;17.60;45.00;;;;;;1570629;74;1183;-72
2023/12/29 05:08:25;;;;;;;;;;;17.70;45.10;;;;;;1563754;74;777;-72
2023/12/29 05:10:27;;;;;;;;;;;17.70;45.10;;;;;;1555817;74;773;-72
2023/12/29 05:12:29;;;;;;;;;;;17.60;45.00;;;;;;1523136;76;1940;-71
2023/12/29 05:14:31;;;;;;;;;;;17.70;45.10;;;;;;1563038;74;1181;-74
2023/12/29 05:16:33;;;;;;;;;;;17.70;45.10;;;;;;1539264;75;887;-72
2023/12/29 05:18:35;;;;;;;;;;;17.70;45.10;;;;;;1531699;75;759;-72
2023/12/29 05:20:37;;;;;;;;;;;17.60;45.00;;;;;;1525309;75;801;-72
2023/12/29 05:22:39;;;;;;;;;;;17.70;45.10;;;;;;1560469;74;812;-72
2023/12/29 05:24:41;;;;;;;;;;;17.70;45.10;;;;;;1562371;74;1158;-71
2023/12/29 05:26:43;;;;;;;;;;;17.70;45.10;;;;;;1561819;74;763;-72
2023/12/29 05:28:45;;;;;;;;;;;17.70;45.10;;;;;;1562129;74;637;-72
2023/12/29 05:30:46;;;;;;;;;;;17.70;45.10;;;;;;1560114;74;767;-74
2023/12/29 05:32:48;;;;;;;;;;;17.70;45.00;;;;;;1562168;74;1940;-70
2023/12/29 05:34:50;;;;;;;;;;;17.70;45.10;;;;;;1568460;74;1168;-69
2023/12/29 05:36:52;;;;;;;;;;;17.70;45.00;;;;;;1557310;75;894;-71
2023/12/29 05:38:54;;;;;;;;;;;17.70;45.10;;;;;;1558609;74;756;-73
2023/12/29 05:40:56;;;;;;;;;;;17.70;45.10;;;;;;1563694;75;812;-69
2023/12/29 05:42:58;;;;;;;;;;;17.70;45.10;;;;;;1561680;74;792;-72
2023/12/29 05:44:59;;;;;;;;;;;17.60;45.00;;;;;;1564826;74;1157;-74
2023/12/29 05:47:01;;;;;;;;;;;17.70;45.10;;;;;;1541454;76;776;-70
2023/12/29 05:49:03;;;;;;;;;;;17.70;45.10;;;;;;1530564;75;786;-72
2023/12/29 05:51:10;;;;;;;;;;;17.70;45.00;;;;;;1542267;75;1944;-71
2023/12/29 05:53:13;;;;;;;;;;;17.70;45.10;;;;;;1563314;74;1397;-71
2023/12/29 05:55:15;;;;;;;;;;;17.70;45.10;;;;;;1559271;74;1192;-72
2023/12/29 05:57:17;;;;;;;;;;;17.70;45.10;;;;;;1556405;74;768;-71
2023/12/29 05:59:19;;;;;;;;;;;17.60;45.00;;;;;;1555655;74;793;-71
2023/12/29 06:01:21;;;;;;;;;;;17.70;45.10;;;;;;1554413;74;770;-71
2023/12/29 06:03:23;;;;;;;;;;;17.70;45.10;;;;;;1565440;74;796;-73
2023/12/29 06:05:25;;;;;;;;;;;17.70;45.10;;;;;;1556869;74;1228;-71
2023/12/29 06:07:27;;;;;;;;;;;17.70;45.10;;;;;;1564668;74;773;-72
2023/12/29 06:09:28;;;;;;;;;;;17.70;45.00;;;;;;1565302;74;775;-72
2023/12/29 06:11:30;;;;;;;;;;;17.70;45.10;;;;;;1557004;74;1938;-72
2023/12/29 06:13:32;;;;;;;;;;;17.70;45.10;;;;;;1558438;74;756;-70
2023/12/29 06:15:34;;;;;;;;;;;17.70;45.10;;;;;;1559615;74;1171;-71
2023/12/29 06:17:36;;;;;;;;;;;17.70;45.10;;;;;;1562433;74;767;-72
2023/12/29 06:19:38;;;;;;;;;;;17.70;45.10;;;;;;1563944;74;773;-74
2023/12/29 06:21:43;;;;;;;;;;;17.70;45.10;;;;;;1562655;74;688;-71
2023/12/29 06:23:45;;;;;;;;;;;17.70;45.10;;;;;;1558702;74;762;-71
2023/12/29 06:25:47;;;;;;;;;;;17.70;45.10;;;;;;1564525;74;1245;-72
2023/12/29 06:27:49;;;;;;;;;;;17.70;45.20;;;;;;1556682;74;755;-72
2023/12/29 06:29:50;;;;;;;;;;;17.70;45.10;;;;;;1559595;74;772;-71
2023/12/29 06:31:52;;;;;;;;;;;17.70;45.10;;;;;;1565161;74;1952;-72
2023/12/29 06:33:54;;;;;;;;;;;17.70;45.10;;;;;;1564798;74;774;-72
2023/12/29 06:35:56;;;;;;;;;;;17.70;45.10;;;;;;1566446;74;1141;-72
2023/12/29 06:37:58;;;;;;;;;;;17.70;45.10;;;;;;1565655;74;786;-72
2023/12/29 06:40:00;;;;;;;;;;;17.70;45.10;;;;;;1561196;74;788;-72
2023/12/29 06:42:02;;;;;;;;;;;17.70;45.10;;;;;;1559963;74;661;-72
2023/12/29 06:44:04;;;;;;;;;;;17.70;45.10;;;;;;1563798;74;750;-73
2023/12/29 06:46:08;;;;;;;;;;;17.70;45.00;;;;;;1565768;74;1187;-73
2023/12/29 06:48:09;;;;;;;;;;;17.70;45.00;;;;;;1559323;74;1602;-72
2023/12/29 06:50:12;;;;;;;;;;;17.70;45.00;;;;;;1558686;74;773;-68
2023/12/29 06:52:14;;;;;;;;;;;17.70;45.00;;;;;;1560861;74;1932;-69
2023/12/29 06:54:16;;;;;;;;;;;17.70;45.10;;;;;;1562319;74;762;-69
2023/12/29 06:56:20;;;;;;;;;;;17.70;45.00;;;;;;1562870;74;1158;-72
2023/12/29 06:58:22;;;;;;;;;;;17.70;45.00;;;;;;1559902;74;777;-72
2023/12/29 07:00:24;;;;;;;;;;;17.70;45.00;;;;;;1561512;74;806;-72
2023/12/29 07:02:26;;;;;;;;;;;17.70;45.00;;;;;;1562123;74;769;-72
2023/12/29 07:04:28;;;;;;;;;;;17.70;45.00;;;;;;1555236;74;1244;-72
2023/12/29 07:06:30;;;;;;;;;;;17.70;45.10;;;;;;1562185;74;792;-72
2023/12/29 07:08:32;;;;;;;;;;;17.70;45.10;;;;;;1551956;74;776;-74
2023/12/29 07:10:33;;;;;;;;;;;17.70;45.00;;;;;;1567270;74;627;-74
2023/12/29 07:12:35;;;;;;;;;;;17.70;45.10;;;;;;1564871;74;1939;-72
2023/12/29 07:14:37;;;;;;;;;;;17.70;45.10;;;;;;1562342;74;1197;-72
2023/12/29 07:16:39;;;;;;;;;;;17.70;45.10;;;;;;1565873;74;792;-70
2023/12/29 07:18:42;;;;;;;;;;;17.70;45.10;;;;;;1562894;74;789;-69
2023/12/29 07:20:44;;;;;;;;;;;17.70;45.10;;;;;;1563681;74;784;-69
2023/12/29 07:22:46;;;;;;;;;;;17.70;45.10;;;;;;1559443;74;813;-72
2023/12/29 07:24:48;;;;;;;;;;;17.70;45.10;;;;;;1562631;74;1218;-71
2023/12/29 07:26:50;;;;;;;;;;;17.70;45.10;;;;;;1562203;74;764;-74
2023/12/29 07:28:54;;;;;;;;;;;17.70;45.20;;;;;;1560853;74;688;-71
2023/12/29 07:30:55;;;;;;;;;;;17.70;45.10;;;;;;1566119;74;1576;-74
2023/12/29 07:32:57;;;;;;;;;;;17.70;45.10;;;;;;1543086;75;1936;-71
2023/12/29 07:34:59;;;;;;;;;;;17.70;45.10;;;;;;1535415;75;1170;-72
2023/12/29 07:37:01;;;;;;;;;;;17.70;45.10;;;;;;1528881;75;761;-70
2023/12/29 07:39:04;;;;;;;;;;;17.70;45.10;;;;;;1529061;75;766;-70
2023/12/29 07:41:05;;;;;;;;;;;17.70;45.10;;;;;;1551055;74;804;-72
2023/12/29 07:43:07;;;;;;;;;;;17.70;45.10;;;;;;1532203;75;783;-72
2023/12/29 07:45:09;;;;;;;;;;;17.70;45.10;;;;;;1556428;74;1423;-72
2023/12/29 07:47:11;;;;;;;;;;;17.70;45.10;;;;;;1543881;75;761;-71
2023/12/29 07:49:13;;;;;;;;;;;17.70;45.10;;;;;;1524664;75;767;-72
2023/12/29 07:51:16;;;;;;;;;;;17.70;45.10;;;;;;1529643;76;781;-73
2023/12/29 07:53:17;;;;;;;;;;;17.70;45.10;;;;;;1547567;75;2155;-72
2023/12/29 07:55:19;;;;;;;;;;;17.70;45.10;;;;;;1566011;74;1177;-71
2023/12/29 07:57:21;;;;;;;;;;;17.70;45.10;;;;;;1527966;75;789;-68
2023/12/29 07:59:23;;;;;;;;;;;17.70;45.10;;;;;;1573581;74;794;-69
2023/12/29 08:01:25;;;;;;;;;;;17.50;45.00;;;;;;1569821;74;772;-68
2023/12/29 08:03:27;;;;;;;;;;;17.70;45.10;;;;;;1566016;74;758;-72
2023/12/29 08:05:29;;;;;;;;;;;17.70;45.10;;;;;;1569329;74;1212;-71
2023/12/29 08:07:31;;;;;;;;;;;17.70;45.10;;;;;;1550129;75;784;-72
2023/12/29 08:09:33;;;;;;;;;;;17.70;45.10;;;;;;1536051;76;766;-72
2023/12/29 08:11:35;;;;;;;;;;;17.70;45.10;;;;;;1561118;74;776;-72
2023/12/29 08:13:37;;;;;;;;;;;17.70;45.10;;;;;;1537962;76;1944;-71
2023/12/29 08:15:39;;;;;;;;;;;17.70;45.10;;;;;;1523576;75;1176;-73
2023/12/29 08:17:41;;;;;;;;;;;17.70;45.10;;;;;;1531832;76;830;-72
2023/12/29 08:19:43;;;;;;;;;;;17.70;45.10;;;;;;1536380;76;752;-72
2023/12/29 08:21:45;;;;;;;;;;;17.70;45.10;;;;;;1566179;75;780;-73
2023/12/29 08:23:49;;;;;;;;;;;17.70;45.10;;;;;;1568781;74;765;-72
2023/12/29 08:25:51;;;;;;;;;;;17.70;45.10;;;;;;1561388;74;1185;-73
2023/12/29 08:27:53;;;;;;;;;;;17.70;45.10;;;;;;1574920;74;764;-72
2023/12/29 08:29:55;;;;;;;;;;;17.70;45.10;;;;;;1569145;74;780;-72
2023/12/29 08:31:57;;;;;;;;;;;17.70;45.10;;;;;;1563132;74;671;-73
2023/12/29 08:33:59;;;;;;;;;;;17.70;45.10;;;;;;1561968;74;794;-75
2023/12/29 08:36:02;;;;;;;;;;;17.70;45.10;;;;;;1561154;74;1117;-71
2023/12/29 08:38:04;;;;;;;;;;;17.70;45.10;;;;;;1573711;74;929;-70
2023/12/29 08:40:06;;;;;;;;;;;17.70;45.10;;;;;;1570085;74;809;-72
2023/12/29 08:42:08;;;;;;;;;;;17.70;45.10;;;;;;1556111;75;746;-71
2023/12/29 08:44:10;;;;;;;;;;;17.70;45.10;;;;;;1562644;76;753;-71
2023/12/29 08:46:12;;;;;;;;;;;17.70;45.10;;;;;;1562349;74;1169;-72
2023/12/29 08:48:13;;;;;;;;;;;17.70;45.10;;;;;;1563709;76;811;-73
2023/12/29 08:50:16;;;;;;;;;;;17.70;45.10;;;;;;1560388;74;790;-72
2023/12/29 08:52:18;;;;;;;;;;;17.70;45.10;;;;;;1559618;74;1936;-72
2023/12/29 08:54:20;;;;;;;;;;;17.70;45.10;;;;;;1557894;76;763;-72
2023/12/29 08:56:22;;;;;;;;;;;17.60;45.00;;;;;;1553589;74;1245;-71
2023/12/29 08:58:24;;;;;;;;;;;17.70;45.10;;;;;;1560649;74;788;-72
2023/12/29 09:00:26;;;;;;;;;;;17.70;45.10;;;;;;1568563;74;770;-74
2023/12/29 09:02:27;;;;;;;;;;;17.70;45.10;;;;;;1565680;74;775;-74
2023/12/29 09:04:29;;;;;;;;;;;17.70;45.10;;;;;;1558424;74;1225;-68
2023/12/29 09:06:31;;;;;;;;;;;17.70;45.10;;;;;;1568092;74;788;-72
2023/12/29 09:08:33;;;;;;;;;;;17.70;45.10;;;;;;1561397;74;752;-72
2023/12/29 09:10:35;;;;;;;;;;;17.70;45.10;;;;;;1561255;74;775;-72
2023/12/29 09:12:38;;;;;;;;;;;17.70;45.10;;;;;;1561584;74;1935;-72
2023/12/29 09:14:40;;;;;;;;;;;17.70;45.20;;;;;;1563110;74;1189;-72
2023/12/29 09:16:42;;;;;;;;;;;17.70;45.10;;;;;;1527266;76;698;-69
2023/12/29 09:18:44;;;;;;;;;;;17.70;45.10;;;;;;1580125;74;653;-71
2023/12/29 09:20:46;;;;;;;;;;;17.70;45.10;;;;;;1596132;73;766;-72
2023/12/29 09:22:48;;;;;;;;;;;17.70;45.20;;;;;;1602621;73;771;-70
2023/12/29 09:24:50;;;;;;;;;;;17.70;45.20;;;;;;1602689;73;1170;-74
2023/12/29 09:26:52;;;;;;;;;;;17.70;45.10;;;;;;1589526;73;772;-72
2023/12/29 09:28:54;;;;;;;;;;;17.70;45.10;;;;;;1593835;73;783;-69
2023/12/29 09:30:55;;;;;;;;;;;17.70;45.20;;;;;;1593778;73;775;-72
2023/12/29 09:32:57;;;;;;;;;;;17.70;45.10;;;;;;1598183;73;1934;-72
2023/12/29 09:34:59;;;;;;;;;;;17.70;45.10;;;;;;1591483;73;1177;-71
2023/12/29 09:37:01;;;;;;;;;;;17.70;45.20;;;;;;1590533;73;1429;-72
2023/12/29 09:39:03;;;;;;;;;;;17.70;45.10;;;;;;1592907;73;774;-74
2023/12/29 09:41:06;;;;;;;;;;;17.70;45.10;;;;;;1603068;73;794;-73
2023/12/29 09:43:07;;;;;;;;;;;17.70;45.20;;;;;;1601087;73;781;-72
2023/12/29 09:45:11;;;;;;;;;;;17.70;45.10;;;;;;1600636;73;1171;-72
2023/12/29 09:47:13;;;;;;;;;;;17.70;45.10;;;;;;1596872;73;766;-72
2023/12/29 09:49:15;;;;;;;;;;;17.70;45.10;;;;;;1590385;73;752;-72
2023/12/29 09:51:17;;;;;;;;;;;17.70;45.10;;;;;;1602053;73;782;-71
2023/12/29 09:53:19;;;;;;;;;;;17.70;45.10;;;;;;1599073;73;1933;-72
2023/12/29 09:55:21;;;;;;;;;;;17.70;45.10;;;;;;1594878;73;1160;-72
2023/12/29 09:57:24;;;;;;;;;;;17.70;45.10;;;;;;1595452;73;766;-74
2023/12/29 09:59:27;;;;;;;;;;;17.70;45.10;;;;;;1596901;74;700;-73
2023/12/29 10:01:29;;;;;;;;;;;17.70;45.20;;;;;;1598579;73;763;-73
2023/12/29 10:03:31;;;;;;;;;;;17.70;45.10;;;;;;1602877;73;777;-71
2023/12/29 10:05:33;;;;;;;;;;;17.60;45.00;;;;;;1603308;73;1230;-70
2023/12/29 10:07:38;;;;;;;;;;;17.70;45.10;;;;;;1594274;73;784;-73
2023/12/29 10:09:40;;;;;;;;;;;17.70;45.10;;;;;;1602444;73;671;-73
2023/12/29 10:11:42;;;;;;;;;;;17.70;45.10;;;;;;1592824;73;746;-72
2023/12/29 10:13:45;;;;;;;;;;;17.70;45.10;;;;;;1583834;73;1929;-72
2023/12/29 10:15:57;;;;;;;;;;;17.70;45.20;;;;;;1595655;73;1160;-73
2023/12/29 10:18:02;;;;;;;;;;;17.70;45.10;;;;;;1594012;73;817;-74
2023/12/29 10:20:06;;;;;;;;;;;17.70;45.10;;;;;;1592955;73;937;-72
2023/12/29 10:22:12;;;;;;;;;;;17.70;45.20;;;;;;1598294;73;1432;-72
2023/12/29 10:24:15;;;;;;;;;;;17.80;45.10;;;;;;1595488;73;736;-71
2023/12/29 10:26:17;;;;;;;;;;;17.70;45.10;;;;;;1594579;73;1164;-72
2023/12/29 10:28:19;;;;;;;;;;;17.70;45.10;;;;;;1599185;73;760;-72
2023/12/29 10:30:21;;;;;;;;;;;17.70;45.20;;;;;;1594252;73;790;-71
2023/12/29 10:32:23;;;;;;;;;;;17.70;45.20;;;;;;1593472;73;759;-71
2023/12/29 10:34:31;;;;;;;;;;;17.70;45.20;;;;;;1594843;73;1952;-71
2023/12/29 10:36:35;;;;;;;;;;;17.70;45.10;;;;;;1600855;73;535;-75
2023/12/29 10:38:38;;;;;;;;;;;17.00;44.70;;;;;;1590835;73;1653;-72
2023/12/29 10:40:42;;;;;;;;;;;17.70;45.10;;;;;;1606030;73;782;-73
2023/12/29 10:42:48;;;;;;;;;;;17.70;45.10;;;;;;1597506;73;1684;-72
2023/12/29 10:44:50;;;;;;;;;;;17.70;45.10;;;;;;1590545;73;1515;-72
2023/12/29 10:46:52;;;;;;;;;;;17.70;45.10;;;;;;1566290;74;1193;-73
2023/12/29 10:48:54;;;;;;;;;;;17.70;45.20;;;;;;1596585;73;750;-73
2023/12/29 10:50:56;;;;;;;;;;;17.70;45.10;;;;;;1591639;73;790;-72
2023/12/29 10:53:13;;;;;;;;;;;17.70;45.10;;;;;;1599224;73;1939;-74
2023/12/29 10:55:15;;;;;;;;;;;17.70;45.10;;;;;;1594581;73;1201;-72
2023/12/29 10:57:17;;;;;;;;;;;17.70;45.20;;;;;;1597014;73;766;-73
2023/12/29 10:59:19;;;;;;;;;;;17.70;45.10;;;;;;1595151;73;763;-73
2023/12/29 11:01:23;;;;;;;;;;;17.70;45.10;;;;;;1588328;73;755;-72
2023/12/29 11:03:25;;;;;;;;;;;17.70;45.20;;;;;;1599298;73;786;-74
2023/12/29 11:05:27;;;;;;;;;;;17.70;45.20;;;;;;1593784;73;1172;-72
2023/12/29 11:07:38;;;;;;;;;;;17.70;45.20;;;;;;1594637;73;785;-73
2023/12/29 11:09:40;;;;;;;;;;;17.70;45.10;;;;;;1594372;73;750;-70
2023/12/29 11:11:42;;;;;;;;;;;17.70;45.10;;;;;;1584587;73;766;-68
2023/12/29 11:13:44;;;;;;;;;;;17.70;45.20;;;;;;1596148;73;1952;-71
2023/12/29 11:15:46;;;;;;;;;;;17.70;45.20;;;;;;1602789;73;1238;-72
2023/12/29 11:17:52;;;;;;;;;;;17.70;45.20;;;;;;1602390;73;786;-72
2023/12/29 11:19:51;;;;;;;;;;;17.70;45.20;;;;;;1569008;74;1165;-72
2023/12/29 11:21:56;;;;;;;;;;;17.70;45.20;;;;;;1567394;74;1244;-73
2023/12/29 11:23:58;;;;;;;;;;;17.80;45.20;;;;;;1590409;73;793;-73
2023/12/29 11:26:00;;;;;;;;;;;17.70;45.20;;;;;;1595027;73;1160;-70
2023/12/29 11:28:02;;;;;;;;;;;17.70;45.20;;;;;;1587473;73;780;-73
2023/12/29 11:30:04;;;;;;;;;;;17.70;45.20;;;;;;1595553;73;1438;-71
2023/12/29 11:32:07;;;;;;;;;;;17.70;45.20;;;;;;1583538;73;704;-69
2023/12/29 11:34:10;;;;;;;;;;;17.70;45.20;;;;;;1601145;73;1940;-70
2023/12/29 11:36:23;;;;;;;;;;;17.70;45.20;;;;;;1597944;73;1156;-73
2023/12/29 11:38:27;;;;;;;;;;;17.70;45.20;;;;;;1590521;73;784;-70
2023/12/29 11:40:33;;;;;;;;;;;17.80;45.20;;;;;;1592388;73;670;-73
2023/12/29 11:42:37;;;;;;;;;;;17.70;45.20;;;;;;1596918;73;1502;-73
2023/12/29 11:44:39;;;;;;;;;;;17.70;45.20;;;;;;1591610;73;1163;-72
2023/12/29 11:46:46;;;;;;;;;;;17.70;45.20;;;;;;1599148;73;788;-75
2023/12/29 11:48:56;;;;;;;;;;;17.70;45.20;;;;;;1596630;73;1159;-75
2023/12/29 11:50:57;;;;;;;;;;;17.80;45.20;;;;;;1603309;73;810;-70
2023/12/29 11:52:59;;;;;;;;;;;17.70;45.20;;;;;;1589851;73;508;-73
2023/12/29 11:55:12;;;;;;;;;;;17.70;45.20;;;;;;1594909;73;1935;-72
2023/12/29 11:57:14;;;;;;;;;;;17.70;45.20;;;;;;1589399;73;1403;-70
2023/12/29 11:59:19;;;;;;;;;;;17.70;45.20;;;;;;1567331;74;1129;-70
2023/12/29 12:01:36;;;;;;;;;;;17.80;45.20;;;;;;1596419;73;767;-72
2023/12/29 12:03:38;;;;;;;;;;;17.70;45.20;;;;;;1596461;73;779;-70
2023/12/29 12:05:49;;;;;;;;;;;17.80;45.20;;;;;;1595815;73;1152;-72
2023/12/29 12:07:55;;;;;;;;;;;17.70;45.20;;;;;;1595335;73;778;-72
2023/12/29 12:10:15;;;;;;;;;;;17.70;45.20;;;;;;1596756;73;1605;-74